Time;durP1;ratioP1;P1;durP2;ratioP2;P2;SDS_P1;SDS_P2;PMS_P1;PMS_P2;Temp;Humidity;BMP_temperature;BMP_pressure;BME280_temperature;BME280_humidity;BME280_pressure;Samples;Min_cycle;Max_cycle;Signal;HPM_P1;HPM_P2
2021/12/14 00:00:26;;;;;;;6.90;6.50;;;;;;;3.12;100.00;99915.59;5055439;28;20481;-73
2021/12/14 00:02:53;;;;;;;7.00;6.60;;;;;;;3.15;100.00;99933.69;5062771;28;20492;-73
2021/12/14 00:05:24;;;;;;;7.53;7.00;;;;;;;3.23;100.00;99934.63;5074172;28;20446;-73
2021/12/14 00:07:51;;;;;;;7.00;6.40;;;;;;;3.26;100.00;99934.38;5074182;28;20427;-72
2021/12/14 00:10:43;;;;;;;7.27;6.67;;;;;;;3.28;100.00;99929.81;5073961;28;21019;-72
2021/12/14 00:13:20;;;;;;;6.03;5.73;;;;;;;3.18;100.00;99926.34;5075215;28;20434;-73
2021/12/14 00:15:47;;;;;;;5.93;5.50;;;;;;;3.17;100.00;99929.97;5075201;28;20499;-73
2021/12/14 00:18:13;;;;;;;6.30;5.90;;;;;;;3.17;100.00;99937.81;5074799;28;20503;-73
2021/12/14 00:20:43;;;;;;;6.17;5.87;;;;;;;3.08;100.00;99938.66;5074471;28;20542;-73
2021/12/14 00:25:57;;;;;;;6.63;6.23;;;;;;;3.03;100.00;99945.28;5074242;28;20410;-72
2021/12/14 00:28:29;;;;;;;6.57;6.17;;;;;;;3.09;100.00;99948.19;5074161;28;20442;-72
2021/12/14 00:31:00;;;;;;;6.80;6.40;;;;;;;3.14;100.00;99945.97;5074279;28;20458;-72
2021/12/14 00:33:31;;;;;;;6.33;5.83;;;;;;;3.06;100.00;99951.06;5073701;28;20426;-72
2021/12/14 00:35:59;;;;;;;6.60;6.03;;;;;;;3.04;100.00;99950.41;5073585;28;20977;-72
2021/12/14 00:38:27;;;;;;;6.17;5.87;;;;;;;3.04;100.00;99946.94;5073832;28;20449;-72
2021/12/14 00:40:56;;;;;;;6.10;5.70;;;;;;;3.02;100.00;99952.31;5073648;28;20449;-73
2021/12/14 00:43:25;;;;;;;6.43;6.03;;;;;;;3.09;100.00;99956.06;5074015;28;20430;-73
2021/12/14 00:45:53;;;;;;;5.97;5.67;;;;;;;3.05;100.00;99961.69;5073581;28;20469;-73
2021/12/14 00:48:21;;;;;;;7.00;6.60;;;;;;;3.11;100.00;99959.34;5074449;28;20441;-73
2021/12/14 00:50:52;;;;;;;6.77;6.27;;;;;;;3.07;100.00;99957.97;5073197;28;20535;-72
2021/12/14 00:53:19;;;;;;;6.93;6.43;;;;;;;3.05;100.00;99967.78;5073216;28;20446;-72
2021/12/14 00:55:49;;;;;;;6.50;6.00;;;;;;;3.05;100.00;99962.53;5073262;28;20460;-73
2021/12/14 00:58:19;;;;;;;6.40;5.87;;;;;;;3.06;100.00;99958.94;5074311;28;20430;-73
2021/12/14 01:00:50;;;;;;;6.00;5.70;;;;;;;2.98;100.00;99960.63;5073369;28;20442;-73
2021/12/14 01:03:17;;;;;;;6.03;5.57;;;;;;;2.97;100.00;99959.78;5074165;28;20430;-73
2021/12/14 01:05:46;;;;;;;5.83;5.53;;;;;;;3.03;100.00;99959.22;5072929;28;20484;-73
2021/12/14 01:08:19;;;;;;;5.33;5.03;;;;;;;2.95;100.00;99961.72;5072884;28;20245;-73
2021/12/14 01:10:50;;;;;;;5.60;5.20;;;;;;;2.85;100.00;99965.25;5072812;28;20519;-72
2021/12/14 01:13:21;;;;;;;5.30;5.00;;;;;;;2.89;100.00;99964.03;5073688;28;20847;-72
2021/12/14 01:16:01;;;;;;;5.33;5.03;;;;;;;2.86;100.00;99967.75;5073592;28;20793;-73
2021/12/14 01:18:46;;;;;;;5.43;5.13;;;;;;;2.87;100.00;99969.44;5072770;28;20430;-72
2021/12/14 01:21:23;;;;;;;5.73;5.30;;;;;;;2.83;100.00;99975.91;5073558;28;20500;-72
2021/12/14 01:23:59;;;;;;;5.77;5.47;;;;;;;2.74;100.00;99979.31;5072668;28;20929;-73
2021/12/14 01:26:29;;;;;;;5.03;4.73;;;;;;;2.72;100.00;99977.81;5073441;28;20437;-72
2021/12/14 01:28:56;;;;;;;5.17;4.87;;;;;;;2.78;100.00;99967.59;5072891;28;20449;-73
2021/12/14 01:31:29;;;;;;;4.93;4.63;;;;;;;2.74;100.00;99968.03;5072998;28;20473;-73
2021/12/14 01:33:59;;;;;;;5.00;4.70;;;;;;;2.61;100.00;99942.03;5072549;28;20487;-73
2021/12/14 01:36:36;;;;;;;4.50;4.20;;;;;;;2.68;100.00;99963.31;5072455;28;20430;-73
2021/12/14 01:39:22;;;;;;;5.10;4.90;;;;;;;2.70;100.00;99974.50;5072909;28;20433;-73
2021/12/14 01:41:55;;;;;;;5.37;5.07;;;;;;;2.70;100.00;99966.63;5072391;28;20949;-73
2021/12/14 01:44:22;;;;;;;5.07;4.77;;;;;;;2.64;100.00;99970.63;5072358;28;20434;-73
2021/12/14 01:46:55;;;;;;;5.47;4.93;;;;;;;2.68;100.00;99969.38;5072354;28;20492;-73
2021/12/14 01:49:25;;;;;;;4.97;4.70;;;;;;;2.65;100.00;99972.28;5072293;28;20449;-73
2021/12/14 01:51:56;;;;;;;5.30;4.93;;;;;;;2.63;100.00;99966.34;5072162;28;20499;-73
2021/12/14 01:54:27;;;;;;;4.93;4.67;;;;;;;2.61;100.00;99973.50;5071350;28;20483;-73
2021/12/14 01:56:54;;;;;;;4.53;4.23;;;;;;;2.63;100.00;99976.84;5072193;28;20909;-73
2021/12/14 01:59:27;;;;;;;5.40;5.10;;;;;;;2.58;100.00;99968.53;5072100;28;21030;-73
2021/12/14 02:02:07;;;;;;;4.97;4.77;;;;;;;2.63;100.00;99976.84;5072173;28;20469;-73
2021/12/14 02:04:35;;;;;;;5.97;5.47;;;;;;;2.56;100.00;99977.47;5072404;28;20925;-73
2021/12/14 02:07:06;;;;;;;6.27;5.80;;;;;;;2.54;100.00;99977.66;5071991;28;20867;-73
2021/12/14 02:09:34;;;;;;;6.00;5.60;;;;;;;2.58;100.00;99981.63;5073190;28;20438;-73
2021/12/14 02:12:09;;;;;;;5.80;5.40;;;;;;;2.63;100.00;99976.00;5072205;28;20470;-73
2021/12/14 02:14:36;;;;;;;4.90;4.53;;;;;;;2.57;100.00;99964.25;5072005;28;20426;-73
2021/12/14 02:17:07;;;;;;;4.13;3.93;;;;;;;2.46;100.00;99969.63;5071909;28;20829;-73
2021/12/14 02:19:35;;;;;;;4.67;4.30;;;;;;;2.48;100.00;99967.69;5072803;28;20426;-73
2021/12/14 02:22:06;;;;;;;4.13;3.93;;;;;;;2.56;100.00;99970.47;5072187;28;20872;-73
2021/12/14 02:24:33;;;;;;;3.90;3.70;;;;;;;2.48;100.00;99972.91;5073024;28;20434;-73
2021/12/14 02:27:01;;;;;;;3.27;3.17;;;;;;;2.42;100.00;99965.59;5071811;28;20442;-73
2021/12/14 02:29:31;;;;;;;3.80;3.60;;;;;;;2.44;100.00;99976.78;5071840;28;20438;-73
2021/12/14 02:32:04;;;;;;;3.40;3.23;;;;;;;2.34;100.00;99975.06;5072375;28;20458;-73
2021/12/14 02:34:37;;;;;;;3.73;3.53;;;;;;;2.31;100.00;99981.41;5072392;28;20430;-73
2021/12/14 02:37:05;;;;;;;3.67;3.47;;;;;;;2.34;100.00;99970.69;5072168;28;20452;-73
2021/12/14 02:39:47;;;;;;;3.87;3.57;;;;;;;2.34;100.00;99975.06;5072813;28;20434;-72
2021/12/14 02:42:19;;;;;;;3.90;3.70;;;;;;;2.28;100.00;99986.09;5072594;28;20465;-72
2021/12/14 02:44:50;;;;;;;4.00;3.70;;;;;;;2.32;100.00;99977.03;5071551;28;20407;-73
2021/12/14 02:47:18;;;;;;;3.90;3.70;;;;;;;2.26;100.00;99982.78;5071692;28;20434;-73
2021/12/14 02:49:45;;;;;;;3.90;3.70;;;;;;;2.30;100.00;99979.78;5072481;28;20483;-73
2021/12/14 02:52:20;;;;;;;3.83;3.63;;;;;;;2.36;100.00;99984.47;5071491;28;20527;-73
2021/12/14 02:54:53;;;;;;;3.90;3.67;;;;;;;2.33;100.00;99984.72;5072763;28;20430;-73
2021/12/14 02:57:23;;;;;;;3.67;3.47;;;;;;;2.31;100.00;99985.81;5071794;28;20503;-73
2021/12/14 02:59:51;;;;;;;4.07;3.77;;;;;;;2.20;100.00;99984.13;5072638;28;20838;-73
2021/12/14 03:02:22;;;;;;;4.03;3.83;;;;;;;2.31;100.00;99978.78;5071782;28;20488;-73
2021/12/14 03:04:54;;;;;;;3.57;3.43;;;;;;;2.28;100.00;99979.06;5074055;28;20430;-73
2021/12/14 03:07:26;;;;;;;3.87;3.67;;;;;;;2.16;100.00;99976.66;5075291;28;20433;-73
2021/12/14 03:09:58;;;;;;;4.07;3.77;;;;;;;2.17;100.00;99986.19;5075233;28;20510;-73
2021/12/14 03:12:32;;;;;;;4.13;3.93;;;;;;;2.21;100.00;99980.53;5075989;28;20462;-73
2021/12/14 03:15:04;;;;;;;3.77;3.57;;;;;;;2.18;100.00;99979.97;5075464;28;20839;-73
2021/12/14 03:17:31;;;;;;;3.80;3.70;;;;;;;2.12;100.00;99983.94;5075693;28;20488;-73
2021/12/14 03:20:04;;;;;;;3.57;3.37;;;;;;;2.14;100.00;99979.41;5075323;28;20495;-73
2021/12/14 03:22:39;;;;;;;4.10;3.90;;;;;;;2.18;100.00;99980.81;5075012;28;20430;-73
2021/12/14 03:25:07;;;;;;;4.13;3.93;;;;;;;2.17;100.00;99984.38;5075857;28;20425;-73
2021/12/14 03:27:38;;;;;;;3.50;3.30;;;;;;;2.17;100.00;99984.38;5074867;28;20437;-73
2021/12/14 03:30:17;;;;;;;4.00;3.80;;;;;;;2.11;100.00;99990.16;5075408;28;20448;-74
2021/12/14 03:32:44;;;;;;;3.73;3.53;;;;;;;2.08;100.00;99990.41;5075885;28;20465;-73
2021/12/14 03:35:11;;;;;;;3.90;3.70;;;;;;;2.14;100.00;99992.53;5075568;28;20507;-73
2021/12/14 03:37:39;;;;;;;3.53;3.43;;;;;;;2.10;100.00;100001.59;5075022;28;20438;-73
2021/12/14 03:40:08;;;;;;;3.93;3.73;;;;;;;2.08;100.00;100000.88;5074631;28;20790;-73
2021/12/14 03:42:38;;;;;;;3.87;3.60;;;;;;;2.03;100.00;100003.06;5074615;28;20446;-73
2021/12/14 03:45:07;;;;;;;3.70;3.50;;;;;;;1.94;100.00;99998.63;5075009;28;20470;-73
2021/12/14 03:47:38;;;;;;;3.13;3.03;;;;;;;1.88;100.00;99993.88;5074527;28;20824;-73
2021/12/14 03:50:09;;;;;;;3.90;3.70;;;;;;;1.87;100.00;99994.84;5075662;28;20426;-73
2021/12/14 03:52:41;;;;;;;3.87;3.67;;;;;;;1.82;100.00;100004.88;5074449;28;21050;-73
2021/12/14 03:55:12;;;;;;;4.10;3.67;;;;;;;1.80;100.00;100004.16;5075316;28;20422;-73
2021/12/14 03:57:40;;;;;;;3.90;3.70;;;;;;;1.80;100.00;100004.16;5074383;28;20434;-73
2021/12/14 04:00:10;;;;;;;3.93;3.67;;;;;;;1.84;100.00;100008.19;5074887;28;20511;-73
2021/12/14 04:02:37;;;;;;;3.27;3.07;;;;;;;1.85;100.00;100012.50;5074283;28;20442;-73
2021/12/14 04:05:10;;;;;;;3.73;3.43;;;;;;;1.82;100.00;100011.91;5075074;28;20547;-73
2021/12/14 04:07:40;;;;;;;3.53;3.40;;;;;;;1.83;100.00;100010.97;5074145;28;20936;-73
2021/12/14 04:10:12;;;;;;;3.87;3.67;;;;;;;1.74;100.00;100017.78;5074972;28;20440;-73
2021/12/14 04:12:39;;;;;;;3.73;3.53;;;;;;;1.85;100.00;100015.09;5074102;28;20457;-73
2021/12/14 04:15:06;;;;;;;3.93;3.73;;;;;;;1.80;100.00;100025.09;5074004;28;20446;-74
2021/12/14 04:17:33;;;;;;;4.30;4.07;;;;;;;1.77;100.00;100029.78;5073259;28;20430;-74
2021/12/14 04:20:00;;;;;;;3.70;3.40;;;;;;;1.75;100.00;100023.84;5074240;28;20487;-73
2021/12/14 04:22:31;;;;;;;4.00;3.80;;;;;;;1.75;100.00;100023.84;5075006;28;20438;-73
2021/12/14 04:25:01;;;;;;;4.27;4.07;;;;;;;1.70;100.00;100021.59;5075019;28;20430;-73
2021/12/14 04:27:32;;;;;;;4.67;4.37;;;;;;;1.71;100.00;100022.44;5074325;28;20492;-74
2021/12/14 04:30:01;;;;;;;4.57;4.27;;;;;;;1.67;100.00;100031.53;5074944;28;20430;-73
2021/12/14 04:32:28;;;;;;;5.90;5.40;;;;;;;1.73;100.00;100036.22;5074471;28;20477;-73
2021/12/14 04:34:55;;;;;;;4.90;4.53;;;;;;;1.76;100.00;100042.03;5073639;28;20442;-73
2021/12/14 04:37:23;;;;;;;4.10;3.90;;;;;;;1.77;100.00;100028.00;5073572;28;20434;-73
2021/12/14 04:39:56;;;;;;;4.00;3.80;;;;;;;1.73;100.00;100037.06;5073547;28;20503;-73
2021/12/14 04:53:41;;;;;;;4.43;4.03;;;;;;;1.76;100.00;100036.78;5073025;28;20401;-73
2021/12/14 04:56:10;;;;;;;3.70;3.50;;;;;;;1.74;100.00;100033.50;5072976;28;20441;-73
2021/12/14 04:58:41;;;;;;;4.73;4.50;;;;;;;1.71;100.00;100044.22;5072554;28;20469;-73
2021/12/14 05:01:12;;;;;;;4.30;4.10;;;;;;;1.68;100.00;100049.72;5073365;28;20484;-73
2021/12/14 05:03:43;;;;;;;5.43;5.07;;;;;;;1.76;100.00;100057.75;5072585;28;20423;-74
2021/12/14 05:06:16;;;;;;;4.07;3.77;;;;;;;1.81;100.00;100052.97;5073102;28;20881;-74
2021/12/14 05:11:30;;;;;;;4.30;4.10;;;;;;;1.70;100.00;100042.56;5073012;28;20452;-75
2021/12/14 05:14:04;;;;;;;4.97;4.60;;;;;;;1.63;100.00;100045.81;5072991;28;20438;-75
2021/12/14 05:16:32;;;;;;;5.00;4.60;;;;;;;1.65;100.00;100057.81;5072760;28;20864;-73
2021/12/14 05:19:05;;;;;;;4.70;4.40;;;;;;;1.72;100.00;100050.28;5071463;28;20463;-75
2021/12/14 05:21:34;;;;;;;4.50;4.20;;;;;;;1.70;100.00;100063.50;5072553;28;20790;-75
2021/12/14 05:24:04;;;;;;;5.20;4.80;;;;;;;1.73;100.00;100060.63;5072812;28;20492;-74
2021/12/14 05:26:31;;;;;;;5.10;4.70;;;;;;;1.71;100.00;100057.31;5073325;28;20433;-75
2021/12/14 05:28:58;;;;;;;4.83;4.63;;;;;;;1.73;100.00;100058.03;5072247;28;20504;-80
2021/12/14 05:31:25;;;;;;;5.47;5.03;;;;;;;1.70;100.00;100065.28;5073071;28;20491;-80
2021/12/14 05:33:53;;;;;;;6.37;5.97;;;;;;;1.70;100.00;100068.75;5072294;28;20445;-73
2021/12/14 05:36:22;;;;;;;6.30;5.90;;;;;;;1.79;100.00;100073.22;5072490;28;20962;-79
2021/12/14 05:38:57;;;;;;;5.37;5.07;;;;;;;1.76;100.00;100076.06;5072311;28;20441;-77
2021/12/14 05:44:12;;;;;;;4.93;4.73;;;;;;;1.84;100.00;100081.50;5072416;28;20398;-74
2021/12/14 05:46:38;;;;;;;5.17;4.83;;;;;;;1.80;100.00;100085.34;5072447;28;20478;-74
2021/12/14 05:49:11;;;;;;;6.80;6.40;;;;;;;1.71;100.00;100080.88;5073301;28;20491;-73
2021/12/14 05:51:38;;;;;;;11.40;10.50;;;;;;;1.76;100.00;100089.16;5072362;28;20453;-73
2021/12/14 05:54:05;;;;;;;15.13;13.73;;;;;;;1.69;100.00;100082.78;5072314;28;20434;-74
2021/12/14 05:56:34;;;;;;;12.43;11.20;;;;;;;1.76;100.00;100091.78;5072020;28;20968;-73
2021/12/14 05:59:03;;;;;;;9.07;8.13;;;;;;;1.75;100.00;100090.13;5072311;28;20499;-73
2021/12/14 06:01:33;;;;;;;15.23;11.83;;;;;;;1.75;100.00;100084.91;5072563;28;20434;-73
2021/12/14 06:04:04;;;;;;;9.70;8.77;;;;;;;1.78;100.00;100087.28;5072481;28;20446;-73
2021/12/14 06:06:34;;;;;;;13.37;10.47;;;;;;;1.68;100.00;100070.66;5072319;28;21074;-73
2021/12/14 06:09:06;;;;;;;17.13;12.93;;;;;;;1.82;100.00;100091.28;5072496;28;20434;-65
2021/12/14 06:11:34;;;;;;;10.27;9.23;;;;;;;1.78;100.00;100097.75;5072724;28;20430;-66
2021/12/14 06:14:01;;;;;;;6.40;6.00;;;;;;;1.68;100.00;100096.00;5071905;28;20980;-65
2021/12/14 06:16:30;;;;;;;7.63;7.13;;;;;;;1.74;100.00;100091.09;5071807;28;20472;-66
2021/12/14 06:19:16;;;;;;;9.87;9.07;;;;;;;1.75;100.00;100103.22;5072102;28;20440;-67
2021/12/14 06:21:46;;;;;;;7.77;7.27;;;;;;;1.73;100.00;100099.91;5072445;28;20483;-66
2021/12/14 06:24:14;;;;;;;6.47;6.07;;;;;;;1.66;100.00;100096.13;5071845;28;20426;-70
2021/12/14 06:26:44;;;;;;;6.70;6.30;;;;;;;1.98;100.00;100096.94;5072595;28;20442;-67
2021/12/14 06:29:13;;;;;;;6.93;6.53;;;;;;;1.97;100.00;100103.13;5072433;28;20442;-67
2021/12/14 06:31:41;;;;;;;11.90;10.77;;;;;;;1.89;100.00;100100.31;5065247;28;20500;-65
2021/12/14 06:34:16;;;;;;;12.07;10.97;;;;;;;1.86;100.00;100103.19;5060481;28;20533;-66
2021/12/14 06:37:29;;;;;;;11.17;10.07;;;;;;;1.80;100.00;100111.53;5063048;28;20849;-65
2021/12/14 06:40:06;;;;;;;10.50;9.80;;;;;;;1.79;100.00;100109.06;5053803;28;20434;-65
2021/12/14 06:42:33;;;;;;;10.70;9.13;;;;;;;1.79;100.00;100103.81;5071546;28;20449;-66
2021/12/14 06:45:10;;;;;;;10.30;9.50;;;;;;;1.69;100.00;100110.75;5075401;28;20477;-66
2021/12/14 06:47:38;;;;;;;12.70;11.40;;;;;;;1.71;100.00;100106.25;5075868;28;20499;-65
2021/12/14 06:50:08;;;;;;;13.47;12.27;;;;;;;1.67;100.00;100110.88;5062975;28;20443;-66
2021/12/14 06:52:37;;;;;;;24.50;18.40;;;;;;;1.68;100.00;100112.56;5055942;28;20520;-66
2021/12/14 06:55:05;;;;;;;35.03;24.57;;;;;;;1.62;100.00;100120.91;5055752;28;20437;-66
2021/12/14 06:57:32;;;;;;;30.17;20.80;;;;;;;1.69;100.00;100118.59;5055633;28;20478;-66
2021/12/14 07:00:00;;;;;;;23.57;16.43;;;;;;;1.69;100.00;100113.38;5055829;28;20492;-66
2021/12/14 07:02:27;;;;;;;12.27;11.00;;;;;;;1.75;100.00;100118.13;5061901;28;20458;-66
2021/12/14 07:04:54;;;;;;;19.57;16.67;;;;;;;1.82;100.00;100120.09;5075247;28;21002;-66
2021/12/14 07:07:25;;;;;;;24.33;18.50;;;;;;;1.89;100.00;100121.28;5060359;28;20446;-66
2021/12/14 07:09:54;;;;;;;11.87;10.50;;;;;;;1.96;100.00;100117.16;5055157;28;20878;-65
2021/12/14 07:12:24;;;;;;;10.17;9.20;;;;;;;1.97;100.00;100113.63;5054940;28;20482;-67
2021/12/14 07:15:09;;;;;;;11.23;9.00;;;;;;;1.95;100.00;100119.91;5055347;28;20431;-67
2021/12/14 07:17:42;;;;;;;11.20;9.83;;;;;;;1.79;100.00;100122.16;5056048;28;20427;-67
2021/12/14 07:20:21;;;;;;;11.17;10.17;;;;;;;1.74;100.00;100126.91;5054961;28;20441;-68
2021/12/14 07:22:49;;;;;;;11.43;10.33;;;;;;;1.79;100.00;100120.34;5059132;28;20969;-67
2021/12/14 07:25:24;;;;;;;11.73;8.70;;;;;;;1.61;100.00;100129.72;5065328;28;20450;-68
2021/12/14 07:27:53;;;;;;;9.23;8.53;;;;;;;1.62;100.00;100127.91;5054884;28;20464;-67
2021/12/14 07:30:23;;;;;;;9.43;8.67;;;;;;;1.69;100.00;100124.69;5061045;28;20946;-66
2021/12/14 07:33:05;;;;;;;9.70;8.43;;;;;;;1.72;100.00;100134.06;5054899;28;20467;-67
2021/12/14 07:35:40;;;;;;;9.07;8.33;;;;;;;1.67;100.00;100126.59;5071996;28;20929;-67
2021/12/14 07:38:24;;;;;;;9.10;8.40;;;;;;;1.67;100.00;100134.44;5067684;28;20433;-68
2021/12/14 07:40:56;;;;;;;8.30;7.60;;;;;;;1.66;100.00;100135.41;5064354;28;20434;-66
2021/12/14 07:43:26;;;;;;;9.13;8.40;;;;;;;1.50;100.00;100118.41;5075205;28;20434;-68
2021/12/14 07:45:54;;;;;;;11.20;10.20;;;;;;;1.53;100.00;100136.50;5075115;28;20473;-67
2021/12/14 07:48:24;;;;;;;13.03;11.63;;;;;;;1.62;100.00;100147.06;5074893;28;20438;-68
2021/12/14 07:50:57;;;;;;;9.90;8.97;;;;;;;1.70;100.00;100147.28;5074971;28;20430;-69
2021/12/14 07:53:34;;;;;;;9.53;8.63;;;;;;;1.74;100.00;100138.22;5074579;28;20523;-68
2021/12/14 07:56:02;;;;;;;9.17;8.40;;;;;;;1.70;100.00;100147.28;5059744;28;20822;-68
2021/12/14 07:58:34;;;;;;;10.77;9.37;;;;;;;1.67;100.00;100152.75;5054175;28;20500;-68
2021/12/14 08:01:01;;;;;;;15.93;13.00;;;;;;;1.72;100.00;100149.78;5053726;28;20447;-68
2021/12/14 08:03:33;;;;;;;13.50;12.10;;;;;;;1.69;100.00;100148.25;5052365;28;20439;-68
2021/12/14 08:06:01;;;;;;;14.70;13.17;;;;;;;1.71;100.00;100148.94;5053594;28;20896;-69
2021/12/14 08:08:40;;;;;;;13.60;12.20;;;;;;;1.75;100.00;100152.97;5052691;28;20500;-68
2021/12/14 08:11:29;;;;;;;16.40;14.33;;;;;;;1.76;100.00;100157.25;5052218;28;20441;-68
2021/12/14 08:13:58;;;;;;;50.13;30.27;;;;;;;1.71;100.00;100156.78;5051954;28;20498;-68
2021/12/14 08:16:25;;;;;;;17.03;14.17;;;;;;;1.77;100.00;100155.47;5052281;28;20438;-68
2021/12/14 08:18:53;;;;;;;13.07;11.67;;;;;;;1.74;100.00;100156.56;5051838;28;21051;-68
2021/12/14 08:21:23;;;;;;;15.80;12.40;;;;;;;1.83;100.00;100158.44;5052707;28;20473;-68
2021/12/14 08:23:53;;;;;;;14.20;12.53;;;;;;;1.78;100.00;100159.75;5054081;28;20559;-66
2021/12/14 08:26:25;;;;;;;13.13;11.20;;;;;;;1.80;100.00;100153.44;5053949;28;20496;-67
2021/12/14 08:28:56;;;;;;;14.80;12.07;;;;;;;1.83;100.00;100153.19;5054172;28;20439;-69
2021/12/14 08:31:31;;;;;;;14.47;11.17;;;;;;;1.91;100.00;100157.81;5071569;28;20430;-68
2021/12/14 08:34:04;;;;;;;20.30;13.40;;;;;;;1.88;100.00;100164.13;5073858;28;20860;-68
2021/12/14 08:36:37;;;;;;;18.50;14.17;;;;;;;1.92;100.00;100159.47;5074664;28;20434;-68
2021/12/14 08:39:08;;;;;;;22.33;17.97;;;;;;;1.99;100.00;100153.59;5073964;28;20492;-68
2021/12/14 08:41:42;;;;;;;14.33;11.23;;;;;;;1.99;100.00;100163.22;5057816;28;20489;-69
2021/12/14 08:44:10;;;;;;;14.60;12.20;;;;;;;1.97;100.00;100155.53;5053341;28;20427;-69
2021/12/14 08:46:37;;;;;;;12.07;10.83;;;;;;;1.97;100.00;100150.28;5053634;28;20969;-69
2021/12/14 08:49:06;;;;;;;17.87;13.73;;;;;;;2.10;100.00;100155.34;5053273;28;20506;-69
2021/12/14 08:51:36;;;;;;;16.27;13.10;;;;;;;2.05;100.00;100158.34;5053499;28;20439;-69
2021/12/14 08:54:07;;;;;;;11.43;10.53;;;;;;;2.13;100.00;100155.09;5053404;28;20524;-70
2021/12/14 08:56:40;;;;;;;19.93;17.50;;;;;;;2.24;100.00;100152.41;5053108;28;21004;-70
2021/12/14 08:59:08;;;;;;;15.80;13.77;;;;;;;2.28;100.00;100149.41;5053211;28;20488;-68
2021/12/14 09:01:38;;;;;;;13.03;11.93;;;;;;;2.25;100.00;100147.03;5053124;28;20443;-68
2021/12/14 09:04:09;;;;;;;14.50;13.00;;;;;;;2.26;100.00;100140.84;5052696;28;20457;-69
2021/12/14 09:06:40;;;;;;;8.73;8.00;;;;;;;2.28;100.00;100138.91;5072276;28;21006;-69
2021/12/14 09:09:10;;;;;;;8.77;8.13;;;;;;;2.25;100.00;100149.66;5073130;28;20507;-69
2021/12/14 09:11:40;;;;;;;15.07;11.80;;;;;;;2.28;100.00;100144.16;5066348;28;20515;-69
2021/12/14 09:14:13;;;;;;;15.70;11.40;;;;;;;2.33;100.00;100144.59;5073626;28;20538;-69
2021/12/14 09:16:42;;;;;;;11.73;10.27;;;;;;;2.31;100.00;100135.22;5072550;28;20438;-69
2021/12/14 09:19:13;;;;;;;9.77;8.87;;;;;;;2.37;100.00;100130.28;5072959;28;20434;-69
2021/12/14 09:21:44;;;;;;;10.47;9.57;;;;;;;2.42;100.00;100135.16;5063910;28;20443;-70
2021/12/14 09:24:13;;;;;;;17.17;13.30;;;;;;;2.46;100.00;100132.16;5053168;28;20501;-69
2021/12/14 09:26:46;;;;;;;15.57;12.33;;;;;;;2.44;100.00;100128.81;5052912;28;20438;-69
2021/12/14 09:29:17;;;;;;;13.77;10.73;;;;;;;2.45;100.00;100122.59;5059393;28;20426;-69
2021/12/14 09:31:47;;;;;;;21.53;15.73;;;;;;;2.45;100.00;100127.84;5052856;28;20427;-68
2021/12/14 09:34:15;;;;;;;15.40;13.37;;;;;;;2.46;100.00;100119.03;5060417;28;20465;-68
2021/12/14 09:36:44;;;;;;;12.87;11.67;;;;;;;2.47;100.00;100125.94;5072219;28;20503;-69
2021/12/14 09:39:14;;;;;;;14.03;12.77;;;;;;;2.50;100.00;100117.81;5072292;28;20438;-69
2021/12/14 09:41:46;;;;;;;19.63;12.13;;;;;;;2.64;100.00;100111.38;5056327;28;20508;-68
2021/12/14 09:44:17;;;;;;;12.07;11.03;;;;;;;2.61;100.00;100107.22;5066898;28;20442;-68
2021/12/14 09:46:44;;;;;;;10.30;9.40;;;;;;;2.61;100.00;100115.09;5072530;28;20899;-68
2021/12/14 09:49:12;;;;;;;13.00;11.13;;;;;;;2.73;100.00;100114.06;5071480;28;20890;-68
2021/12/14 09:51:43;;;;;;;11.70;9.67;;;;;;;2.74;100.00;100102.59;5072113;28;20515;-68
2021/12/14 09:54:15;;;;;;;14.40;11.20;;;;;;;2.69;100.00;100078.56;5072628;28;20547;-68
2021/12/14 09:56:49;;;;;;;15.00;12.53;;;;;;;2.90;100.00;100110.00;5071799;28;20474;-68
2021/12/14 09:59:17;;;;;;;18.07;14.00;;;;;;;2.80;100.00;100104.72;5072385;28;20810;-68
2021/12/14 10:01:48;;;;;;;18.00;16.00;;;;;;;2.76;100.00;100095.44;5072010;28;20442;-67
2021/12/14 10:04:18;;;;;;;19.03;15.73;;;;;;;2.76;100.00;100102.47;5072120;28;20438;-67
2021/12/14 10:06:46;;;;;;;25.13;17.07;;;;;;;2.68;100.00;100091.81;5072108;28;20491;-67
2021/12/14 10:09:16;;;;;;;35.30;19.73;;;;;;;2.76;100.00;100082.31;5072436;28;20434;-68
2021/12/14 10:12:01;;;;;;;31.47;19.87;;;;;;;2.83;100.00;100088.72;5072070;28;20430;-67
2021/12/14 10:14:33;;;;;;;26.60;19.30;;;;;;;2.81;100.00;100088.00;5071516;28;20465;-66
2021/12/14 10:17:00;;;;;;;17.77;15.90;;;;;;;2.78;100.00;100085.63;5071737;28;20860;-67
2021/12/14 10:19:31;;;;;;;14.87;13.37;;;;;;;2.76;100.00;100082.31;5071253;28;20437;-67
2021/12/14 10:22:00;;;;;;;14.87;13.33;;;;;;;2.74;100.00;100084.22;5060917;28;20451;-69
2021/12/14 10:24:27;;;;;;;12.80;11.60;;;;;;;2.78;100.00;100088.25;5051735;28;20515;-68
2021/12/14 10:27:01;;;;;;;15.23;12.40;;;;;;;2.76;100.00;100091.97;5051904;28;20450;-68
2021/12/14 10:29:30;;;;;;;15.43;13.90;;;;;;;2.75;100.00;100085.91;5053800;28;20427;-68
2021/12/14 10:32:03;;;;;;;11.80;10.80;;;;;;;2.78;100.00;100085.63;5071514;28;20442;-69
2021/12/14 10:34:34;;;;;;;13.30;11.60;;;;;;;2.72;100.00;100091.41;5071960;28;20465;-68
2021/12/14 10:37:09;;;;;;;13.23;11.57;;;;;;;2.75;100.00;100096.41;5071577;28;20866;-68
2021/12/14 10:42:36;;;;;;;18.00;16.03;;;;;;;2.82;100.00;100089.66;5072237;28;20472;-69
2021/12/14 10:45:20;;;;;;;13.13;11.77;;;;;;;2.85;100.00;100086.78;5047651;28;20467;-68
2021/12/14 10:47:47;;;;;;;19.70;15.67;;;;;;;2.81;100.00;100080.13;5051625;28;20434;-67
2021/12/14 10:50:16;;;;;;;30.63;19.90;;;;;;;2.76;100.00;100082.31;5051548;28;20439;-68
2021/12/14 10:52:43;;;;;;;28.40;16.50;;;;;;;2.76;100.00;100079.72;5049914;28;20986;-67
2021/12/14 10:55:15;;;;;;;32.60;18.93;;;;;;;2.81;100.00;100074.88;5049738;28;20474;-67
2021/12/14 10:57:44;;;;;;;44.57;22.33;;;;;;;2.80;100.00;100078.47;5049726;28;20431;-66
2021/12/14 11:00:16;;;;;;;24.20;16.70;;;;;;;2.87;100.00;100076.16;5049862;28;20504;-67
2021/12/14 11:02:43;;;;;;;31.10;18.37;;;;;;;2.81;100.00;100080.13;5049650;28;20435;-68
2021/12/14 11:05:16;;;;;;;15.07;13.57;;;;;;;2.86;100.00;100082.38;5049096;28;20530;-65
2021/12/14 11:07:46;;;;;;;16.30;12.83;;;;;;;2.92;100.00;100074.78;5049332;28;20445;-66
2021/12/14 11:10:15;;;;;;;11.87;10.97;;;;;;;2.89;100.00;100072.44;5049751;28;20435;-67
2021/12/14 11:12:47;;;;;;;10.93;9.87;;;;;;;3.00;100.00;100074.97;5049941;28;20969;-67
2021/12/14 11:15:18;;;;;;;9.63;8.73;;;;;;;3.02;100.00;100067.75;5050188;28;20819;-67
2021/12/14 11:20:35;;;;;;;8.80;8.13;;;;;;;3.07;100.00;100064.75;5089686;28;20482;-66
2021/12/14 11:23:06;;;;;;;11.40;10.40;;;;;;;3.07;100.00;100070.00;5052086;28;20442;-67
2021/12/14 11:25:36;;;;;;;11.23;10.03;;;;;;;3.10;100.00;100070.53;5050279;28;20430;-67
2021/12/14 11:28:06;;;;;;;10.97;10.07;;;;;;;3.03;100.00;100060.72;5053248;28;20864;-67
2021/12/14 11:30:36;;;;;;;12.10;11.00;;;;;;;3.14;100.00;100066.69;5054708;28;21210;-66
2021/12/14 11:33:08;;;;;;;24.07;14.63;;;;;;;3.71;100.00;100053.63;5055134;28;20434;-77
2021/12/14 11:35:37;;;;;;;30.33;17.37;;;;;;;3.53;100.00;100062.31;5061250;28;20437;-66
2021/12/14 11:38:10;;;;;;;11.03;9.57;;;;;;;3.41;100.00;100059.00;5074626;28;20446;-66
2021/12/14 11:40:37;;;;;;;12.43;11.23;;;;;;;3.34;100.00;100062.28;5067294;28;20427;-67
2021/12/14 11:43:19;;;;;;;13.03;11.93;;;;;;;3.27;100.00;100063.81;5053923;28;20492;-67
2021/12/14 11:45:47;;;;;;;11.87;10.77;;;;;;;3.12;100.00;100062.53;5054254;28;20474;-66
2021/12/14 11:48:15;;;;;;;12.37;10.90;;;;;;;3.19;100.00;100061.84;5054834;28;20447;-67
2021/12/14 11:50:46;;;;;;;13.73;10.93;;;;;;;3.23;100.00;100065.88;5054424;28;20439;-67
2021/12/14 11:53:20;;;;;;;13.77;11.37;;;;;;;3.07;100.00;100035.88;5055547;28;20496;-68
2021/12/14 11:55:50;;;;;;;17.43;11.40;;;;;;;3.25;100.00;100063.97;5054192;28;20929;-67
2021/12/14 11:58:30;;;;;;;11.77;10.20;;;;;;;3.28;100.00;100061.06;5054290;28;20505;-67
2021/12/14 12:01:02;;;;;;;18.57;14.00;;;;;;;3.32;100.00;100061.63;5055932;28;20532;-67
2021/12/14 12:03:35;;;;;;;11.93;10.70;;;;;;;3.36;100.00;100068.25;5074116;28;20464;-66